createdAt,value
2023-03-28T00:00:29.148Z,9.40
2023-03-28T00:05:31.476Z,9.40
2023-03-28T00:10:33.836Z,9.40
2023-03-28T00:15:38.673Z,9.40
2023-03-28T00:20:43.616Z,9.40
2023-03-28T00:25:45.723Z,9.40
2023-03-28T00:30:47.792Z,9.40
2023-03-28T00:35:49.837Z,9.40
2023-03-28T00:40:56.144Z,9.40
2023-03-28T00:46:08.592Z,9.40
2023-03-28T00:51:14.760Z,9.50
2023-03-28T00:56:21.681Z,9.50
2023-03-28T01:01:23.795Z,9.40
2023-03-28T01:06:26.351Z,9.50
2023-03-28T01:11:29.257Z,9.50
2023-03-28T01:16:31.541Z,9.60
2023-03-28T01:21:48.558Z,9.60
2023-03-28T01:27:16.125Z,9.60
2023-03-28T01:33:04.045Z,9.60
2023-03-28T01:38:48.941Z,9.60
2023-03-28T01:44:02.443Z,9.60
2023-03-28T01:49:07.570Z,9.60
2023-03-28T01:54:39.714Z,9.60
2023-03-28T02:00:00.982Z,9.60
2023-03-28T02:05:11.753Z,9.60
2023-03-28T02:10:23.921Z,9.60
2023-03-28T02:15:33.026Z,9.70
2023-03-28T02:20:37.106Z,9.70
2023-03-28T02:25:59.568Z,9.70
2023-03-28T02:31:32.850Z,9.60
2023-03-28T02:36:40.768Z,9.60
2023-03-28T02:41:57.040Z,9.60
2023-03-28T02:47:19.258Z,9.60
2023-03-28T02:52:36.959Z,9.60
2023-03-28T02:57:48.937Z,9.60
2023-03-28T03:02:52.193Z,9.60
2023-03-28T03:07:54.511Z,9.60
2023-03-28T03:12:58.568Z,9.60
2023-03-28T03:18:01.133Z,9.60
2023-03-28T03:23:07.613Z,9.60
2023-03-28T03:28:11.036Z,9.60
2023-03-28T03:33:16.828Z,9.60
2023-03-28T03:38:21.304Z,9.60
2023-03-28T03:43:23.457Z,9.60
2023-03-28T03:48:25.631Z,9.60
2023-03-28T03:53:34.695Z,9.50
2023-03-28T03:58:45.592Z,9.50
2023-03-28T04:03:48.312Z,9.60
2023-03-28T04:08:58.493Z,9.50
2023-03-28T04:14:25.329Z,9.50
2023-03-28T04:19:40.053Z,9.50
2023-03-28T04:24:44.624Z,9.50
2023-03-28T04:29:56.399Z,9.50
2023-03-28T04:35:21.425Z,9.50
2023-03-28T04:40:28.200Z,9.50
2023-03-28T04:45:45.118Z,9.60
2023-03-28T04:50:51.140Z,9.50
2023-03-28T04:55:53.427Z,9.40
2023-03-28T05:01:03.861Z,9.40
2023-03-28T05:06:35.898Z,9.40
2023-03-28T05:11:38.872Z,9.40
2023-03-28T05:16:41.266Z,9.40
2023-03-28T05:22:02.053Z,9.40
2023-03-28T05:27:05.159Z,9.40
2023-03-28T05:32:07.395Z,9.50
2023-03-28T05:37:10.441Z,9.50
2023-03-28T05:42:20.337Z,9.40
2023-03-28T05:47:23.109Z,9.40
2023-03-28T05:52:25.973Z,9.40
2023-03-28T05:57:28.415Z,9.40
2023-03-28T06:02:30.952Z,9.40
2023-03-28T06:07:41.915Z,9.40
2023-03-28T06:12:47.713Z,9.40
2023-03-28T06:17:49.924Z,9.40
2023-03-28T06:22:52.278Z,9.30
2023-03-28T06:27:54.804Z,9.40
2023-03-28T06:32:57.264Z,9.40
2023-03-28T06:37:59.476Z,9.40
2023-03-28T06:43:02.241Z,9.40
2023-03-28T06:48:33.071Z,9.40
2023-03-28T06:54:05.358Z,9.50
2023-03-28T06:59:07.500Z,9.50
2023-03-28T07:04:11.073Z,9.50
2023-03-28T07:09:15.925Z,9.50
2023-03-28T07:14:26.928Z,9.50
2023-03-28T07:19:29.409Z,9.60
2023-03-28T07:24:32.007Z,9.60
2023-03-28T07:29:41.179Z,9.70
2023-03-28T07:34:43.541Z,9.70
2023-03-28T07:39:49.013Z,9.80
2023-03-28T07:44:55.863Z,9.80
2023-03-28T07:49:58.060Z,9.90
2023-03-28T07:55:01.614Z,10.00
2023-03-28T08:00:13.103Z,10.10
2023-03-28T08:05:29.313Z,10.10
2023-03-28T08:10:32.643Z,10.20
2023-03-28T08:15:35.528Z,10.30
2023-03-28T08:20:37.715Z,10.40
2023-03-28T08:25:47.940Z,10.40
2023-03-28T08:30:53.911Z,10.40
2023-03-28T08:35:56.945Z,10.50
2023-03-28T08:41:22.385Z,10.70
2023-03-28T08:46:35.582Z,10.90
2023-03-28T08:51:41.448Z,10.90
2023-03-28T08:56:48.601Z,11.20
2023-03-28T09:01:50.920Z,11.50
2023-03-28T09:07:02.681Z,11.60
2023-03-28T09:12:08.026Z,11.60
2023-03-28T09:17:32.270Z,11.60
2023-03-28T09:22:56.167Z,11.60
2023-03-28T09:28:27.476Z,11.50
2023-03-28T09:33:39.208Z,11.50
2023-03-28T09:38:54.979Z,11.60
2023-03-28T09:44:00.747Z,11.60
2023-03-28T09:49:38.371Z,11.90
2023-03-28T09:54:46.200Z,12.00
2023-03-28T09:59:48.573Z,12.20
2023-03-28T10:04:56.904Z,12.30
2023-03-28T10:10:21.205Z,12.40
2023-03-28T10:15:33.857Z,12.50
2023-03-28T10:20:54.813Z,12.40
2023-03-28T10:26:02.839Z,12.40
2023-03-28T10:31:05.930Z,12.40
2023-03-28T10:36:23.679Z,12.70
2023-03-28T10:41:29.851Z,13.00
2023-03-28T10:46:50.836Z,13.30
2023-03-28T10:52:18.565Z,13.40
2023-03-28T10:57:38.729Z,13.40
2023-03-28T11:02:55.998Z,13.50
2023-03-28T11:08:09.436Z,13.90
2023-03-28T11:13:19.143Z,14.00
2023-03-28T11:18:40.298Z,14.10
2023-03-28T11:23:55.770Z,14.00
2023-03-28T11:29:12.118Z,14.00
2023-03-28T11:34:24.156Z,14.10
2023-03-28T11:39:59.353Z,14.20
2023-03-28T11:45:12.509Z,14.10
2023-03-28T11:50:24.788Z,14.10
2023-03-28T11:55:37.336Z,14.40
2023-03-28T12:01:09.354Z,14.50
2023-03-28T12:06:44.001Z,14.40
2023-03-28T12:12:13.804Z,14.70
2023-03-28T12:17:35.125Z,15.10
2023-03-28T12:22:50.541Z,15.20
2023-03-28T12:28:11.196Z,15.20
2023-03-28T12:33:24.250Z,15.00
2023-03-28T12:38:57.833Z,15.20
2023-03-28T12:44:08.132Z,15.10
2023-03-28T12:49:26.149Z,14.70
2023-03-28T12:54:32.113Z,14.60
2023-03-28T12:59:59.723Z,14.60
2023-03-28T13:05:44.007Z,15.00
2023-03-28T13:11:13.119Z,15.70
2023-03-28T13:16:23.831Z,15.70
2023-03-28T13:21:52.658Z,15.30
2023-03-28T13:26:59.894Z,15.10
2023-03-28T13:32:04.333Z,15.10
2023-03-28T13:37:37.002Z,14.70
2023-03-28T13:42:59.928Z,14.10
2023-03-28T13:48:12.649Z,13.80
2023-03-28T13:53:15.792Z,13.60
2023-03-28T13:58:19.115Z,13.80
2023-03-28T14:03:21.294Z,13.70
2023-03-28T14:08:25.636Z,13.80
2023-03-28T14:13:30.984Z,14.00
2023-03-28T14:18:39.953Z,13.90
2023-03-28T14:24:01.244Z,13.80
2023-03-28T14:29:11.570Z,13.90
2023-03-28T14:34:18.827Z,14.00
2023-03-28T14:39:21.348Z,14.00
2023-03-28T14:44:24.037Z,13.90
2023-03-28T14:49:27.319Z,13.70
2023-03-28T14:54:36.153Z,13.70
2023-03-28T14:59:42.232Z,13.60
2023-03-28T15:04:46.957Z,13.60
2023-03-28T15:10:11.807Z,13.60
2023-03-28T15:15:32.346Z,13.70
2023-03-28T15:20:36.808Z,13.80
2023-03-28T15:25:39.107Z,13.90
2023-03-28T15:30:43.795Z,13.80
2023-03-28T15:35:46.994Z,13.60
2023-03-28T15:40:51.018Z,13.70
2023-03-28T15:45:57.303Z,14.00
2023-03-28T15:51:04.333Z,13.90
2023-03-28T15:56:25.825Z,13.90
2023-03-28T16:01:31.178Z,13.70
2023-03-28T16:06:41.831Z,13.50
2023-03-28T16:11:46.112Z,13.50
2023-03-28T16:17:08.196Z,13.40
2023-03-28T16:22:21.130Z,13.40
2023-03-28T16:27:23.253Z,13.30
2023-03-28T16:32:25.459Z,13.30
2023-03-28T16:37:27.509Z,13.10
2023-03-28T16:42:30.803Z,13.20
2023-03-28T16:47:32.847Z,13.20
2023-03-28T16:52:38.953Z,13.10
2023-03-28T16:57:41.632Z,13.10
2023-03-28T17:02:48.008Z,13.10
2023-03-28T17:07:50.462Z,13.00
2023-03-28T17:12:52.611Z,12.90
2023-03-28T17:17:54.778Z,12.90
2023-03-28T17:22:57.592Z,12.90
2023-03-28T17:28:00.949Z,12.80
2023-03-28T17:33:04.725Z,12.80
2023-03-28T17:38:07.542Z,12.80
2023-03-28T17:43:11.561Z,12.80
2023-03-28T17:48:13.636Z,12.80
2023-03-28T17:53:15.711Z,12.70
2023-03-28T17:58:17.900Z,12.70
2023-03-28T18:03:20.339Z,12.70
2023-03-28T18:08:45.040Z,12.70
2023-03-28T18:13:47.349Z,12.70
2023-03-28T18:18:49.408Z,12.70
2023-03-28T18:23:51.803Z,12.70
2023-03-28T18:28:53.884Z,12.70
2023-03-28T18:33:57.403Z,12.70
2023-03-28T18:38:59.656Z,12.70
2023-03-28T18:44:01.883Z,12.60
2023-03-28T18:49:04.032Z,12.60
2023-03-28T18:54:06.509Z,12.60
2023-03-28T18:59:08.664Z,12.60
2023-03-28T19:04:11.985Z,12.60
2023-03-28T19:09:14.625Z,12.60
2023-03-28T19:14:16.897Z,12.60
2023-03-28T19:19:19.005Z,12.60
2023-03-28T19:24:21.812Z,12.60
2023-03-28T19:29:23.936Z,12.60
2023-03-28T19:34:26.041Z,12.60
2023-03-28T19:39:28.136Z,12.60
2023-03-28T19:44:31.249Z,12.60
2023-03-28T19:49:33.424Z,12.60
2023-03-28T19:54:36.527Z,12.60
2023-03-28T19:59:38.689Z,12.60
2023-03-28T20:04:41.069Z,12.60
2023-03-28T20:09:48.778Z,12.60
2023-03-28T20:14:51.387Z,12.60
2023-03-28T20:19:53.436Z,12.60
2023-03-28T20:24:55.802Z,12.50
2023-03-28T20:29:58.105Z,12.60
2023-03-28T20:35:00.376Z,12.60
2023-03-28T20:40:10.566Z,12.60
2023-03-28T20:45:22.341Z,12.60
2023-03-28T20:50:37.567Z,12.60
2023-03-28T20:55:40.478Z,12.60
2023-03-28T21:00:43.819Z,12.50
2023-03-28T21:05:46.863Z,12.50
2023-03-28T21:10:53.538Z,12.50
2023-03-28T21:15:55.552Z,12.50
2023-03-28T21:20:58.183Z,12.50
2023-03-28T21:26:00.651Z,12.50
2023-03-28T21:31:09.038Z,12.50
2023-03-28T21:36:12.861Z,12.50
2023-03-28T21:41:16.106Z,12.50
2023-03-28T21:46:18.843Z,12.50
2023-03-28T21:51:21.156Z,12.50
2023-03-28T21:56:23.241Z,12.50
2023-03-28T22:01:25.624Z,12.50
2023-03-28T22:06:28.156Z,12.50
2023-03-28T22:11:30.210Z,12.50
2023-03-28T22:16:38.112Z,12.50
2023-03-28T22:21:40.216Z,12.50
2023-03-28T22:26:42.563Z,12.50
2023-03-28T22:31:44.662Z,12.50
2023-03-28T22:36:49.503Z,12.50
2023-03-28T22:41:54.076Z,12.50
2023-03-28T22:47:02.217Z,12.50
2023-03-28T22:52:06.174Z,12.50
2023-03-28T22:57:08.392Z,12.40
2023-03-28T23:02:11.568Z,12.40
2023-03-28T23:07:14.209Z,12.40
2023-03-28T23:12:16.322Z,12.50
2023-03-28T23:17:19.029Z,12.40
2023-03-28T23:22:21.567Z,12.50
2023-03-28T23:27:23.729Z,12.40
2023-03-28T23:32:25.799Z,12.40
2023-03-28T23:37:28.249Z,12.50
2023-03-28T23:42:30.434Z,12.50
2023-03-28T23:47:32.545Z,12.50
2023-03-28T23:52:35.037Z,12.50
2023-03-28T23:57:37.307Z,12.50
